Time;durP1;ratioP1;P1;durP2;ratioP2;P2;SDS_P1;SDS_P2;PMS_P1;PMS_P2;Temp;Humidity;BMP_temperature;BMP_pressure;BME280_temperature;BME280_humidity;BME280_pressure;Samples;Min_cycle;Max_cycle;Signal;HPM_P1;HPM_P2
2022/03/11 00:01:39;;;;;;;14.73;6.65;;;;;;;;;;5095216;28;20790;-83
2022/03/11 00:04:25;;;;;;;15.90;6.72;;;;;;;;;;5095498;28;20120;-83
2022/03/11 00:06:52;;;;;;;14.20;6.88;;;;;;;;;;5095549;28;20056;-83
2022/03/11 00:09:18;;;;;;;13.45;6.47;;;;;;;;;;5095285;28;20087;-83
2022/03/11 00:11:44;;;;;;;14.30;6.53;;;;;;;;;;5095255;28;20057;-83
2022/03/11 00:14:11;;;;;;;13.45;6.45;;;;;;;;;;5094590;28;20053;-83
2022/03/11 00:16:37;;;;;;;14.30;7.05;;;;;;;;;;5095042;28;20067;-82
2022/03/11 00:19:03;;;;;;;18.98;6.65;;;;;;;;;;5095113;28;20060;-83
2022/03/11 00:21:32;;;;;;;16.73;6.85;;;;;;;;;;5093968;28;20059;-83
2022/03/11 00:23:59;;;;;;;15.88;6.90;;;;;;;;;;5093930;28;20106;-82
2022/03/11 00:26:25;;;;;;;14.18;6.80;;;;;;;;;;5087524;28;20080;-83
2022/03/11 00:28:52;;;;;;;13.07;6.70;;;;;;;;;;5095445;28;20585;-83
2022/03/11 00:31:18;;;;;;;15.35;7.03;;;;;;;;;;5093942;28;20065;-83
2022/03/11 00:33:44;;;;;;;13.63;6.53;;;;;;;;;;5096454;28;20087;-83
2022/03/11 00:36:11;;;;;;;15.45;6.88;;;;;;;;;;5090873;28;20204;-83
2022/03/11 00:38:37;;;;;;;14.95;6.57;;;;;;;;;;5092938;28;20063;-83
2022/03/11 00:41:04;;;;;;;14.55;7.40;;;;;;;;;;5095132;28;20599;-82
2022/03/11 00:43:30;;;;;;;14.80;7.10;;;;;;;;;;5093181;28;20462;-83
2022/03/11 00:45:57;;;;;;;17.73;7.43;;;;;;;;;;5094169;28;20052;-83
2022/03/11 00:48:23;;;;;;;13.68;6.82;;;;;;;;;;5095916;28;20064;-82
2022/03/11 00:50:50;;;;;;;14.80;6.97;;;;;;;;;;5092838;28;20040;-83
2022/03/11 00:53:16;;;;;;;14.85;6.93;;;;;;;;;;5094086;28;20079;-83
2022/03/11 00:55:42;;;;;;;15.50;7.00;;;;;;;;;;5095149;28;20049;-83
2022/03/11 00:58:09;;;;;;;15.15;6.93;;;;;;;;;;5092982;28;20053;-82
2022/03/11 01:00:35;;;;;;;15.55;7.00;;;;;;;;;;5092556;28;20060;-83
2022/03/11 01:03:02;;;;;;;16.00;7.00;;;;;;;;;;5092071;28;20083;-82
2022/03/11 01:05:28;;;;;;;15.98;7.40;;;;;;;;;;5092646;28;20056;-83
2022/03/11 01:07:56;;;;;;;15.68;7.72;;;;;;;;;;5091165;28;20068;-83
2022/03/11 01:10:23;;;;;;;18.83;8.07;;;;;;;;;;5087339;28;20497;-82
2022/03/11 01:12:49;;;;;;;15.52;6.90;;;;;;;;;;5089665;28;20041;-83
2022/03/11 01:15:16;;;;;;;12.30;6.07;;;;;;;;;;5081423;28;20862;-83
2022/03/11 01:17:42;;;;;;;14.60;7.53;;;;;;;;;;5090765;28;20057;-82
2022/03/11 01:20:10;;;;;;;15.40;7.60;;;;;;;;;;5091906;28;20106;-83
2022/03/11 01:22:37;;;;;;;14.25;7.07;;;;;;;;;;5091260;28;20500;-83
2022/03/11 01:25:04;;;;;;;17.33;7.25;;;;;;;;;;5090531;28;20049;-82
2022/03/11 01:27:30;;;;;;;18.25;7.53;;;;;;;;;;5087704;28;20574;-83
2022/03/11 01:29:57;;;;;;;15.10;7.32;;;;;;;;;;5092875;28;20052;-84
2022/03/11 01:32:23;;;;;;;16.30;7.07;;;;;;;;;;5091822;28;20098;-83
2022/03/11 01:34:50;;;;;;;16.92;7.10;;;;;;;;;;5092219;28;20110;-82
2022/03/11 01:37:16;;;;;;;15.48;7.30;;;;;;;;;;5093210;28;20067;-82
2022/03/11 01:39:42;;;;;;;16.55;6.95;;;;;;;;;;5092916;28;20053;-83
2022/03/11 01:42:10;;;;;;;16.80;7.60;;;;;;;;;;5091287;28;20139;-83
2022/03/11 01:44:36;;;;;;;14.75;6.90;;;;;;;;;;5090108;28;20106;-83
2022/03/11 01:47:02;;;;;;;15.23;7.35;;;;;;;;;;5090712;28;20056;-83
2022/03/11 01:49:29;;;;;;;17.75;8.20;;;;;;;;;;5091716;28;20074;-83
2022/03/11 01:51:55;;;;;;;15.85;6.65;;;;;;;;;;5095961;27;20056;-83
2022/03/11 01:54:22;;;;;;;14.13;7.22;;;;;;;;;;5091551;28;20056;-83
2022/03/11 01:56:48;;;;;;;17.38;7.18;;;;;;;;;;5097709;28;20040;-83
2022/03/11 01:59:14;;;;;;;16.42;7.53;;;;;;;;;;5089648;28;20053;-83
2022/03/11 02:01:41;;;;;;;15.15;7.43;;;;;;;;;;5092987;28;20098;-83
2022/03/11 02:04:07;;;;;;;18.95;7.40;;;;;;;;;;5093508;28;20053;-82
2022/03/11 02:06:34;;;;;;;16.10;7.90;;;;;;;;;;5091759;28;20087;-83
2022/03/11 02:09:01;;;;;;;16.92;7.57;;;;;;;;;;5090563;28;20049;-83
2022/03/11 02:11:27;;;;;;;15.27;7.60;;;;;;;;;;5090460;28;20071;-82
2022/03/11 02:13:55;;;;;;;16.58;7.97;;;;;;;;;;5091374;28;20060;-82
2022/03/11 02:16:23;;;;;;;16.35;8.00;;;;;;;;;;5091177;28;20063;-83
2022/03/11 02:18:50;;;;;;;16.35;7.13;;;;;;;;;;5090758;28;20119;-83
2022/03/11 02:21:19;;;;;;;16.00;8.27;;;;;;;;;;5089772;28;20604;-83
2022/03/11 02:23:46;;;;;;;15.27;7.43;;;;;;;;;;5089592;28;20052;-83
2022/03/11 02:26:13;;;;;;;16.52;7.63;;;;;;;;;;5089606;28;20070;-82
2022/03/11 02:28:40;;;;;;;18.00;7.88;;;;;;;;;;5088256;28;20053;-83
2022/03/11 02:31:06;;;;;;;18.23;8.40;;;;;;;;;;5090133;28;20106;-83
2022/03/11 02:33:32;;;;;;;14.55;7.38;;;;;;;;;;5082055;28;20076;-83
2022/03/11 02:35:59;;;;;;;18.02;7.88;;;;;;;;;;5091463;28;20048;-82
2022/03/11 02:38:26;;;;;;;16.95;8.57;;;;;;;;;;5087754;28;20845;-82
2022/03/11 02:40:53;;;;;;;20.17;8.85;;;;;;;;;;5091097;28;20032;-83
2022/03/11 02:43:19;;;;;;;17.02;7.65;;;;;;;;;;5089895;28;20068;-83
2022/03/11 02:45:46;;;;;;;15.50;7.85;;;;;;;;;;5090807;28;20083;-82
2022/03/11 02:48:12;;;;;;;16.40;8.00;;;;;;;;;;5081401;28;20651;-82
2022/03/11 02:50:39;;;;;;;15.75;7.25;;;;;;;;;;5086906;28;20508;-83
2022/03/11 02:53:05;;;;;;;14.98;7.40;;;;;;;;;;5093838;28;20053;-83
2022/03/11 02:55:32;;;;;;;17.55;8.07;;;;;;;;;;5091031;28;20232;-83
2022/03/11 02:57:58;;;;;;;15.93;7.80;;;;;;;;;;5090741;28;20056;-83
2022/03/11 03:00:25;;;;;;;15.13;7.43;;;;;;;;;;5090825;28;20053;-82
2022/03/11 03:02:51;;;;;;;21.02;7.72;;;;;;;;;;5089783;28;20102;-83
2022/03/11 03:05:18;;;;;;;16.70;7.93;;;;;;;;;;5090024;28;20056;-82
2022/03/11 03:07:44;;;;;;;17.50;7.72;;;;;;;;;;5082128;28;20064;-83
2022/03/11 03:10:13;;;;;;;16.48;7.38;;;;;;;;;;5089317;28;20052;-83
2022/03/11 03:12:40;;;;;;;17.27;8.45;;;;;;;;;;5088394;28;20134;-82
2022/03/11 03:15:07;;;;;;;16.17;7.53;;;;;;;;;;5089340;28;20040;-82
2022/03/11 03:17:34;;;;;;;16.80;7.18;;;;;;;;;;5088588;28;20053;-82
2022/03/11 03:20:01;;;;;;;15.25;7.40;;;;;;;;;;5089297;28;20504;-83
2022/03/11 03:22:27;;;;;;;17.00;7.57;;;;;;;;;;5089194;28;20106;-83
2022/03/11 03:24:53;;;;;;;16.50;7.32;;;;;;;;;;5089688;28;20052;-82
2022/03/11 03:27:20;;;;;;;14.40;7.20;;;;;;;;;;5095701;28;20040;-82
2022/03/11 03:29:46;;;;;;;14.85;7.00;;;;;;;;;;5087050;28;20057;-82
2022/03/11 03:32:13;;;;;;;14.85;7.30;;;;;;;;;;5084959;28;20885;-82
2022/03/11 03:34:39;;;;;;;24.60;7.50;;;;;;;;;;5079954;28;20060;-82
2022/03/11 03:37:09;;;;;;;17.95;7.40;;;;;;;;;;5090769;28;20056;-82
2022/03/11 03:39:36;;;;;;;16.73;7.85;;;;;;;;;;5088821;28;20056;-83
2022/03/11 03:42:02;;;;;;;18.13;7.00;;;;;;;;;;5090872;28;20052;-82
2022/03/11 03:44:29;;;;;;;15.88;8.27;;;;;;;;;;5088915;28;20057;-82
2022/03/11 03:46:55;;;;;;;17.00;7.40;;;;;;;;;;5080433;28;20053;-82
2022/03/11 03:49:22;;;;;;;17.38;7.47;;;;;;;;;;5088361;28;20053;-82
2022/03/11 03:51:48;;;;;;;17.35;7.38;;;;;;;;;;5088285;28;20048;-83
2022/03/11 03:54:16;;;;;;;14.77;7.30;;;;;;;;;;5088811;28;20102;-83
2022/03/11 03:56:43;;;;;;;15.93;7.35;;;;;;;;;;5086635;28;20553;-82
2022/03/11 03:59:10;;;;;;;18.33;7.65;;;;;;;;;;5088109;28;20159;-83
2022/03/11 04:01:38;;;;;;;16.50;7.85;;;;;;;;;;5088407;28;20462;-83
2022/03/11 04:04:05;;;;;;;15.57;7.72;;;;;;;;;;5088359;28;20081;-83
2022/03/11 04:06:32;;;;;;;16.67;8.05;;;;;;;;;;5089027;28;20086;-82
2022/03/11 04:08:59;;;;;;;16.08;7.38;;;;;;;;;;5080513;28;20053;-82
2022/03/11 04:11:26;;;;;;;16.05;7.57;;;;;;;;;;5088977;28;20146;-82
2022/03/11 04:13:53;;;;;;;15.82;7.80;;;;;;;;;;5088769;28;20576;-82
2022/03/11 04:16:22;;;;;;;16.85;8.13;;;;;;;;;;5088824;28;20080;-82
2022/03/11 04:18:49;;;;;;;17.15;7.40;;;;;;;;;;5082410;28;20053;-83
2022/03/11 04:21:17;;;;;;;13.60;7.30;;;;;;;;;;5081121;28;20080;-83
2022/03/11 04:23:44;;;;;;;16.40;7.25;;;;;;;;;;5088677;28;20110;-83
2022/03/11 04:26:10;;;;;;;15.82;8.02;;;;;;;;;;5088655;28;20549;-83
2022/03/11 04:28:37;;;;;;;15.20;7.80;;;;;;;;;;5082469;28;20052;-82
2022/03/11 04:31:04;;;;;;;16.10;7.43;;;;;;;;;;5090986;28;20044;-83
2022/03/11 04:33:31;;;;;;;16.70;7.57;;;;;;;;;;5095110;28;20025;-83
2022/03/11 04:35:58;;;;;;;20.38;8.20;;;;;;;;;;5093752;28;20056;-83
2022/03/11 04:38:24;;;;;;;16.85;8.05;;;;;;;;;;5094765;28;20071;-82
2022/03/11 04:40:50;;;;;;;16.20;7.68;;;;;;;;;;5095429;28;20041;-83
2022/03/11 04:43:17;;;;;;;18.67;7.75;;;;;;;;;;5095277;28;20060;-83
2022/03/11 04:45:44;;;;;;;15.80;8.00;;;;;;;;;;5098656;28;20142;-83
2022/03/11 04:48:10;;;;;;;16.48;8.02;;;;;;;;;;5089938;28;20122;-83
2022/03/11 04:50:37;;;;;;;19.83;8.15;;;;;;;;;;5091514;28;20106;-82
2022/03/11 04:53:04;;;;;;;18.38;7.45;;;;;;;;;;5091747;28;20853;-82
2022/03/11 04:55:30;;;;;;;14.13;6.72;;;;;;;;;;5082160;28;20049;-82
2022/03/11 04:57:56;;;;;;;17.20;8.30;;;;;;;;;;5089604;28;20057;-82
2022/03/11 05:00:23;;;;;;;15.13;7.45;;;;;;;;;;5092074;28;20079;-82
2022/03/11 05:02:50;;;;;;;18.90;8.52;;;;;;;;;;5091496;28;20071;-82
2022/03/11 05:05:17;;;;;;;15.57;7.22;;;;;;;;;;5091961;28;20909;-82
2022/03/11 05:07:43;;;;;;;14.75;7.10;;;;;;;;;;5092776;28;21067;-82
2022/03/11 05:10:10;;;;;;;17.52;8.05;;;;;;;;;;5091495;28;20053;-84
2022/03/11 05:12:40;;;;;;;17.90;8.50;;;;;;;;;;5090919;28;20069;-83
2022/03/11 05:15:07;;;;;;;17.05;8.40;;;;;;;;;;5084234;28;20087;-83
2022/03/11 05:17:35;;;;;;;16.02;7.43;;;;;;;;;;5091997;28;20186;-83
2022/03/11 05:20:05;;;;;;;25.05;7.95;;;;;;;;;;5091302;28;20878;-82
2022/03/11 05:22:32;;;;;;;21.23;8.60;;;;;;;;;;5093030;28;20082;-82
2022/03/11 05:24:59;;;;;;;14.65;7.60;;;;;;;;;;5090752;28;20056;-83
2022/03/11 05:27:25;;;;;;;16.17;7.95;;;;;;;;;;5092091;28;20053;-82
2022/03/11 05:29:52;;;;;;;18.20;7.85;;;;;;;;;;5092299;28;20494;-82
2022/03/11 05:32:20;;;;;;;17.92;8.38;;;;;;;;;;5091793;28;20044;-83
2022/03/11 05:34:47;;;;;;;17.73;8.27;;;;;;;;;;5092876;28;20533;-82
2022/03/11 05:37:15;;;;;;;18.13;7.32;;;;;;;;;;5091631;28;20056;-82
2022/03/11 05:39:42;;;;;;;14.18;7.10;;;;;;;;;;5100735;28;20510;-82
2022/03/11 05:42:09;;;;;;;19.20;8.57;;;;;;;;;;5095570;27;20160;-82
2022/03/11 05:44:35;;;;;;;25.58;8.65;;;;;;;;;;5091923;28;20102;-82
2022/03/11 05:47:02;;;;;;;16.27;7.75;;;;;;;;;;5098010;28;20029;-83
2022/03/11 05:49:28;;;;;;;17.40;8.43;;;;;;;;;;5094324;28;20491;-83
2022/03/11 05:51:54;;;;;;;18.00;7.70;;;;;;;;;;5095888;28;20033;-83
2022/03/11 05:54:21;;;;;;;15.73;8.02;;;;;;;;;;5093465;28;20060;-83
2022/03/11 05:56:53;;;;;;;16.52;7.97;;;;;;;;;;5095693;28;20056;-84
2022/03/11 05:59:20;;;;;;;16.58;7.45;;;;;;;;;;5093413;28;20094;-83
2022/03/11 06:01:47;;;;;;;20.05;8.13;;;;;;;;;;5094190;28;20056;-83
2022/03/11 06:04:13;;;;;;;17.60;8.27;;;;;;;;;;5093849;28;20136;-82
2022/03/11 06:06:40;;;;;;;16.20;7.80;;;;;;;;;;5095240;28;20056;-82
2022/03/11 06:09:08;;;;;;;15.38;7.55;;;;;;;;;;5089211;28;20056;-82
2022/03/11 06:11:35;;;;;;;18.42;8.45;;;;;;;;;;5092351;28;20068;-82
2022/03/11 06:14:01;;;;;;;15.50;7.53;;;;;;;;;;5093224;28;20500;-82
2022/03/11 06:16:28;;;;;;;17.38;7.88;;;;;;;;;;5093869;28;20052;-84
2022/03/11 06:18:54;;;;;;;17.73;8.13;;;;;;;;;;5092709;28;20099;-82
2022/03/11 06:21:20;;;;;;;15.15;7.60;;;;;;;;;;5091611;28;20060;-82
2022/03/11 06:23:47;;;;;;;15.93;7.70;;;;;;;;;;5086309;28;20048;-82
2022/03/11 06:26:13;;;;;;;13.95;7.80;;;;;;;;;;5090268;28;20033;-82
2022/03/11 06:28:40;;;;;;;14.57;7.60;;;;;;;;;;5091964;28;20066;-84
2022/03/11 06:31:07;;;;;;;17.58;8.13;;;;;;;;;;5093679;28;20056;-83
2022/03/11 06:33:34;;;;;;;17.60;8.10;;;;;;;;;;5092762;28;20044;-84
2022/03/11 06:36:00;;;;;;;17.73;8.23;;;;;;;;;;5091754;28;20052;-82
2022/03/11 06:38:27;;;;;;;17.95;8.02;;;;;;;;;;5084869;28;20060;-82
2022/03/11 06:40:54;;;;;;;16.88;7.93;;;;;;;;;;5092309;28;20862;-82
2022/03/11 06:43:20;;;;;;;17.52;7.65;;;;;;;;;;5098035;28;20075;-84
2022/03/11 06:45:47;;;;;;;18.52;8.00;;;;;;;;;;5103478;28;20064;-84
2022/03/11 06:48:13;;;;;;;18.42;7.70;;;;;;;;;;5097976;28;20082;-83
2022/03/11 06:50:40;;;;;;;17.15;8.13;;;;;;;;;;5094225;28;20909;-83
2022/03/11 06:53:06;;;;;;;17.52;7.80;;;;;;;;;;5094009;28;20067;-83
2022/03/11 06:55:32;;;;;;;20.77;8.25;;;;;;;;;;5097197;28;20049;-84
2022/03/11 06:58:00;;;;;;;16.88;8.02;;;;;;;;;;5095278;28;20059;-83
2022/03/11 07:00:27;;;;;;;18.90;7.50;;;;;;;;;;5099332;28;20040;-82
2022/03/11 07:02:53;;;;;;;15.77;7.05;;;;;;;;;;5091382;28;20053;-84
2022/03/11 07:05:20;;;;;;;16.33;8.20;;;;;;;;;;5099238;28;20055;-84
2022/03/11 07:07:46;;;;;;;19.83;8.02;;;;;;;;;;5098738;28;20056;-82
2022/03/11 07:10:16;;;;;;;17.73;7.65;;;;;;;;;;5097757;28;20424;-82
2022/03/11 07:12:43;;;;;;;14.93;7.70;;;;;;;;;;5097649;28;20731;-84
2022/03/11 07:15:09;;;;;;;17.08;8.48;;;;;;;;;;5096999;28;20130;-83
2022/03/11 07:17:36;;;;;;;17.35;7.65;;;;;;;;;;5095088;28;20052;-83
2022/03/11 07:20:06;;;;;;;17.90;8.27;;;;;;;;;;5097609;28;20540;-84
2022/03/11 07:22:32;;;;;;;18.98;7.63;;;;;;;;;;5096762;28;20053;-82
2022/03/11 07:25:00;;;;;;;18.48;7.25;;;;;;;;;;5096319;28;20045;-82
2022/03/11 07:27:26;;;;;;;15.48;7.00;;;;;;;;;;5094592;28;20052;-83
2022/03/11 07:29:56;;;;;;;17.10;7.50;;;;;;;;;;5092221;28;20063;-83
2022/03/11 07:32:26;;;;;;;18.65;7.03;;;;;;;;;;5092355;28;20163;-83
2022/03/11 07:34:52;;;;;;;18.77;7.55;;;;;;;;;;5093557;28;22431;-83
2022/03/11 07:37:20;;;;;;;17.58;7.47;;;;;;;;;;5101798;28;20056;-82
2022/03/11 07:39:46;;;;;;;17.13;7.78;;;;;;;;;;5092714;28;20060;-83
2022/03/11 07:42:13;;;;;;;15.35;7.63;;;;;;;;;;5090761;28;20075;-84
2022/03/11 07:44:41;;;;;;;17.40;7.88;;;;;;;;;;5090841;28;20060;-83
2022/03/11 07:47:07;;;;;;;16.10;8.27;;;;;;;;;;5098294;28;20478;-84
2022/03/11 07:49:34;;;;;;;15.80;7.35;;;;;;;;;;5093633;28;20055;-83
2022/03/11 07:52:02;;;;;;;16.80;7.63;;;;;;;;;;5082444;28;20056;-83
2022/03/11 07:54:28;;;;;;;18.85;7.93;;;;;;;;;;5096551;28;20037;-83
2022/03/11 07:56:55;;;;;;;18.42;8.32;;;;;;;;;;5090691;28;20055;-84
2022/03/11 07:59:21;;;;;;;16.65;7.88;;;;;;;;;;5092480;28;20107;-83
2022/03/11 08:01:48;;;;;;;16.73;8.18;;;;;;;;;;5092778;28;20114;-83
2022/03/11 08:04:16;;;;;;;16.73;8.50;;;;;;;;;;5093738;28;20075;-83
2022/03/11 08:06:43;;;;;;;17.38;8.52;;;;;;;;;;5093994;28;20052;-84
2022/03/11 08:09:10;;;;;;;16.45;7.95;;;;;;;;;;5089544;28;20057;-83
2022/03/11 08:11:36;;;;;;;18.00;8.20;;;;;;;;;;5095801;28;20103;-84
2022/03/11 08:14:03;;;;;;;17.98;8.55;;;;;;;;;;5092789;28;20053;-84
2022/03/11 08:16:29;;;;;;;18.88;8.82;;;;;;;;;;5089377;28;20431;-83
2022/03/11 08:18:58;;;;;;;19.10;8.40;;;;;;;;;;5097811;28;20041;-85
2022/03/11 08:21:24;;;;;;;17.17;8.35;;;;;;;;;;5093518;28;20052;-84
2022/03/11 08:23:51;;;;;;;17.70;7.93;;;;;;;;;;5099994;28;20056;-84
2022/03/11 08:26:17;;;;;;;15.98;8.18;;;;;;;;;;5098199;28;20052;-83
2022/03/11 08:28:44;;;;;;;19.15;8.10;;;;;;;;;;5089743;28;20139;-84
2022/03/11 08:31:31;;;;;;;16.80;8.20;;;;;;;;;;5089286;28;20135;-84
2022/03/11 08:33:57;;;;;;;17.33;8.52;;;;;;;;;;5097752;28;20056;-84
2022/03/11 08:36:24;;;;;;;17.50;8.50;;;;;;;;;;5101868;28;20074;-85
2022/03/11 08:38:53;;;;;;;17.27;8.55;;;;;;;;;;5098723;28;20856;-84
2022/03/11 08:41:21;;;;;;;19.92;8.98;;;;;;;;;;5097603;28;20132;-85
2022/03/11 08:43:49;;;;;;;22.65;9.40;;;;;;;;;;5096336;28;20062;-85
2022/03/11 08:46:16;;;;;;;16.52;8.18;;;;;;;;;;5096347;28;20128;-86
2022/03/11 08:49:00;;;;;;;17.95;8.75;;;;;;;;;;5094630;28;20137;-84
2022/03/11 08:51:29;;;;;;;16.02;8.82;;;;;;;;;;5088136;28;20049;-85
2022/03/11 08:53:55;;;;;;;17.58;8.80;;;;;;;;;;5094072;28;20110;-85
2022/03/11 08:56:22;;;;;;;15.13;8.07;;;;;;;;;;5095153;28;20125;-85
2022/03/11 08:58:49;;;;;;;17.38;9.02;;;;;;;;;;5095248;28;20537;-84
2022/03/11 09:01:16;;;;;;;16.40;9.20;;;;;;;;;;5096827;28;20053;-84
2022/03/11 09:03:43;;;;;;;19.15;9.00;;;;;;;;;;5092737;28;20175;-84
2022/03/11 09:06:10;;;;;;;22.10;9.20;;;;;;;;;;5095276;28;20048;-84
2022/03/11 09:08:36;;;;;;;17.38;8.70;;;;;;;;;;5096058;28;20107;-84
2022/03/11 09:11:02;;;;;;;18.35;9.25;;;;;;;;;;5094982;28;20574;-85
2022/03/11 09:13:29;;;;;;;22.63;9.38;;;;;;;;;;5096528;28;20041;-84
2022/03/11 09:15:58;;;;;;;18.63;9.52;;;;;;;;;;5092446;28;20048;-84
2022/03/11 09:18:25;;;;;;;19.27;9.30;;;;;;;;;;5095701;28;20660;-84
2022/03/11 09:20:53;;;;;;;17.30;9.82;;;;;;;;;;5096026;28;20146;-84
2022/03/11 09:23:20;;;;;;;18.02;9.45;;;;;;;;;;5101779;27;20052;-84
2022/03/11 09:25:46;;;;;;;16.67;9.43;;;;;;;;;;5095213;28;20060;-84
2022/03/11 09:28:12;;;;;;;17.50;9.63;;;;;;;;;;5088429;28;20711;-85
2022/03/11 09:30:41;;;;;;;21.40;9.50;;;;;;;;;;5090401;28;20040;-84
2022/03/11 09:33:08;;;;;;;22.50;9.50;;;;;;;;;;5090711;28;20067;-83
2022/03/11 09:35:34;;;;;;;18.27;9.57;;;;;;;;;;5093402;28;20060;-84
2022/03/11 09:38:01;;;;;;;19.52;9.82;;;;;;;;;;5096889;28;20148;-84
2022/03/11 09:40:27;;;;;;;18.25;9.00;;;;;;;;;;5093036;28;20056;-84
2022/03/11 09:42:56;;;;;;;20.45;9.65;;;;;;;;;;5092139;28;20525;-85
2022/03/11 09:45:25;;;;;;;17.88;9.63;;;;;;;;;;5078335;28;20059;-85
2022/03/11 09:47:52;;;;;;;17.00;9.43;;;;;;;;;;5090872;28;20060;-84
2022/03/11 09:50:19;;;;;;;17.23;9.63;;;;;;;;;;5088522;28;20048;-85
2022/03/11 09:52:51;;;;;;;18.65;10.05;;;;;;;;;;5095334;28;20067;-84
2022/03/11 09:55:22;;;;;;;17.58;9.90;;;;;;;;;;5086235;28;20053;-84
2022/03/11 09:57:49;;;;;;;18.42;10.10;;;;;;;;;;5082473;28;20024;-84
2022/03/11 10:00:15;;;;;;;20.88;9.70;;;;;;;;;;5095013;28;20059;-84
2022/03/11 10:02:43;;;;;;;19.67;9.98;;;;;;;;;;5092692;28;20044;-84
2022/03/11 10:05:09;;;;;;;20.02;10.23;;;;;;;;;;5093547;28;20033;-84
2022/03/11 10:07:58;;;;;;;20.45;10.05;;;;;;;;;;5094680;28;20063;-84
2022/03/11 10:10:25;;;;;;;20.20;10.60;;;;;;;;;;5083186;28;20117;-84
2022/03/11 10:13:08;;;;;;;19.25;10.25;;;;;;;;;;5091589;28;20045;-83
2022/03/11 10:15:36;;;;;;;17.73;10.70;;;;;;;;;;5090499;28;20052;-84
2022/03/11 10:18:06;;;;;;;18.98;10.50;;;;;;;;;;5088399;28;20057;-84
2022/03/11 10:20:32;;;;;;;18.63;10.50;;;;;;;;;;5089652;28;20829;-84
2022/03/11 10:22:59;;;;;;;16.42;9.63;;;;;;;;;;5089584;28;20053;-83
2022/03/11 10:25:30;;;;;;;20.42;10.88;;;;;;;;;;5090516;28;20052;-83
2022/03/11 10:28:02;;;;;;;19.75;10.60;;;;;;;;;;5091563;28;20060;-83
2022/03/11 10:30:30;;;;;;;20.77;11.90;;;;;;;;;;5087402;28;20057;-83
2022/03/11 10:32:58;;;;;;;25.40;10.82;;;;;;;;;;5083071;28;20057;-82
2022/03/11 10:35:31;;;;;;;18.88;11.27;;;;;;;;;;5088651;28;20049;-83
2022/03/11 10:38:02;;;;;;;16.98;10.18;;;;;;;;;;5088205;28;20118;-83
2022/03/11 10:40:32;;;;;;;23.38;10.45;;;;;;;;;;5090441;28;20487;-83
2022/03/11 10:43:09;;;;;;;18.75;10.63;;;;;;;;;;5088263;28;20568;-83
2022/03/11 10:45:45;;;;;;;19.60;10.38;;;;;;;;;;5087689;28;20048;-84
2022/03/11 10:48:12;;;;;;;19.98;10.32;;;;;;;;;;5087995;28;20521;-84
2022/03/11 10:50:40;;;;;;;20.85;10.93;;;;;;;;;;5076778;28;20114;-84
2022/03/11 10:53:08;;;;;;;17.05;10.05;;;;;;;;;;5083024;28;20056;-85
2022/03/11 10:55:34;;;;;;;20.17;11.20;;;;;;;;;;5086092;28;20052;-85
2022/03/11 10:58:03;;;;;;;20.58;10.88;;;;;;;;;;5087426;28;20052;-85
2022/03/11 11:00:29;;;;;;;25.02;11.73;;;;;;;;;;5087834;28;20052;-84
2022/03/11 11:02:57;;;;;;;19.80;11.02;;;;;;;;;;5085639;28;20056;-84
2022/03/11 11:05:25;;;;;;;19.45;10.88;;;;;;;;;;5074959;28;20817;-85
2022/03/11 11:07:51;;;;;;;17.58;10.45;;;;;;;;;;5084893;28;20977;-85
2022/03/11 11:10:19;;;;;;;21.75;11.00;;;;;;;;;;5085505;28;20195;-85
2022/03/11 11:12:46;;;;;;;19.83;11.07;;;;;;;;;;5083912;28;20106;-85
2022/03/11 11:15:13;;;;;;;21.02;10.60;;;;;;;;;;5085516;28;20197;-84
2022/03/11 11:17:40;;;;;;;18.30;10.55;;;;;;;;;;5085624;28;20056;-84
2022/03/11 11:20:19;;;;;;;18.63;10.75;;;;;;;;;;5081825;28;20088;-85
2022/03/11 11:22:46;;;;;;;20.42;10.68;;;;;;;;;;5085307;28;20064;-85
2022/03/11 11:25:14;;;;;;;18.40;10.95;;;;;;;;;;5086835;28;21397;-84
2022/03/11 11:27:40;;;;;;;20.35;10.48;;;;;;;;;;5086274;28;20059;-85
2022/03/11 11:30:07;;;;;;;21.85;11.48;;;;;;;;;;5081987;28;20185;-84
2022/03/11 11:32:35;;;;;;;22.15;10.73;;;;;;;;;;5085042;28;20075;-85
2022/03/11 11:35:21;;;;;;;19.95;11.38;;;;;;;;;;5086525;28;20060;-85
2022/03/11 11:37:47;;;;;;;20.45;11.15;;;;;;;;;;5103547;28;20102;-84
2022/03/11 11:40:27;;;;;;;22.45;11.30;;;;;;;;;;5076402;28;20120;-86
2022/03/11 11:43:11;;;;;;;20.73;11.43;;;;;;;;;;5075104;28;20103;-85
2022/03/11 11:45:42;;;;;;;19.80;11.63;;;;;;;;;;5086437;28;20048;-85
2022/03/11 11:48:30;;;;;;;21.50;10.80;;;;;;;;;;5088409;28;20533;-85
2022/03/11 11:50:57;;;;;;;20.25;11.93;;;;;;;;;;5088857;28;20060;-85
2022/03/11 11:53:37;;;;;;;19.50;10.88;;;;;;;;;;5086890;28;20925;-85
2022/03/11 11:56:22;;;;;;;19.58;11.20;;;;;;;;;;5084470;28;20052;-85
2022/03/11 11:58:50;;;;;;;23.38;11.88;;;;;;;;;;5094865;28;20049;-84
2022/03/11 12:01:36;;;;;;;20.05;11.85;;;;;;;;;;5094191;28;20053;-84
2022/03/11 12:04:21;;;;;;;19.58;11.70;;;;;;;;;;5086566;28;21110;-84
2022/03/11 12:06:52;;;;;;;20.45;11.45;;;;;;;;;;5091047;28;20158;-84
2022/03/11 12:09:37;;;;;;;19.45;11.27;;;;;;;;;;5095178;28;20488;-84
2022/03/11 12:12:33;;;;;;;20.33;11.52;;;;;;;;;;5092042;28;20491;-85
2022/03/11 12:15:08;;;;;;;18.27;11.05;;;;;;;;;;5084625;28;20102;-84
2022/03/11 12:17:37;;;;;;;20.00;12.15;;;;;;;;;;5089573;28;20037;-84
2022/03/11 12:20:25;;;;;;;23.88;11.93;;;;;;;;;;5092996;28;20142;-84
2022/03/11 12:23:08;;;;;;;20.90;11.68;;;;;;;;;;5077184;28;20507;-84
2022/03/11 12:25:39;;;;;;;21.02;11.90;;;;;;;;;;5093064;28;20060;-83
2022/03/11 12:28:05;;;;;;;;;;;;;;;;;;5091302;28;20028;-83
2022/03/11 12:30:33;;;;;;;21.58;11.77;;;;;;;;;;5087857;28;43744;-83
2022/03/11 12:33:00;;;;;;;20.20;12.68;;;;;;;;;;5091902;28;20116;-83
2022/03/11 12:35:27;;;;;;;18.55;11.88;;;;;;;;;;5089352;28;20107;-83
2022/03/11 12:37:54;;;;;;;19.13;11.25;;;;;;;;;;5092084;28;20053;-83
2022/03/11 12:40:21;;;;;;;21.05;11.32;;;;;;;;;;5085145;28;20110;-83
2022/03/11 12:42:48;;;;;;;21.17;11.75;;;;;;;;;;5089549;28;20041;-83
2022/03/11 12:45:28;;;;;;;19.17;11.30;;;;;;;;;;5079959;28;20056;-83
2022/03/11 12:47:55;;;;;;;22.75;11.90;;;;;;;;;;5091683;28;20060;-83
2022/03/11 12:50:22;;;;;;;22.25;12.05;;;;;;;;;;5088864;28;20915;-83
2022/03/11 12:52:49;;;;;;;18.83;11.73;;;;;;;;;;5091564;28;20091;-83
2022/03/11 12:55:20;;;;;;;19.90;12.25;;;;;;;;;;5090844;28;20048;-83
2022/03/11 12:57:53;;;;;;;20.33;12.35;;;;;;;;;;5090086;28;20663;-83
2022/03/11 13:00:20;;;;;;;21.38;12.57;;;;;;;;;;5090033;28;20057;-83
2022/03/11 13:02:48;;;;;;;21.88;11.45;;;;;;;;;;5091394;28;20097;-83
2022/03/11 13:05:25;;;;;;;25.27;13.10;;;;;;;;;;5090567;28;20049;-83
2022/03/11 13:07:52;;;;;;;22.15;11.95;;;;;;;;;;5091354;28;20556;-83
2022/03/11 13:10:21;;;;;;;18.27;11.45;;;;;;;;;;5089452;28;20048;-82
2022/03/11 13:12:50;;;;;;;25.35;12.50;;;;;;;;;;5089312;28;20519;-83
2022/03/11 13:15:23;;;;;;;19.00;12.13;;;;;;;;;;5093349;28;20396;-83
2022/03/11 13:17:52;;;;;;;20.50;12.13;;;;;;;;;;5089666;28;20106;-83
2022/03/11 13:20:28;;;;;;;22.08;12.57;;;;;;;;;;5090930;28;20060;-83
2022/03/11 13:22:54;;;;;;;22.17;12.20;;;;;;;;;;5087754;27;20533;-83
2022/03/11 13:25:23;;;;;;;23.00;11.82;;;;;;;;;;5086477;28;20106;-83
2022/03/11 13:27:49;;;;;;;22.60;12.80;;;;;;;;;;5090807;28;20565;-82
2022/03/11 13:30:27;;;;;;;20.75;12.43;;;;;;;;;;5090763;28;20577;-83
2022/03/11 13:32:53;;;;;;;22.63;12.48;;;;;;;;;;5089230;28;20056;-82
2022/03/11 13:35:29;;;;;;;21.52;12.23;;;;;;;;;;5091157;28;20044;-84
2022/03/11 13:37:58;;;;;;;24.98;11.68;;;;;;;;;;5101720;28;20063;-83
2022/03/11 13:40:37;;;;;;;23.60;12.32;;;;;;;;;;5089588;28;20052;-83
2022/03/11 13:43:04;;;;;;;20.77;11.98;;;;;;;;;;5086115;28;20138;-83
2022/03/11 13:45:32;;;;;;;24.08;12.45;;;;;;;;;;5087476;28;20106;-82
2022/03/11 13:48:01;;;;;;;21.42;12.75;;;;;;;;;;5092264;27;20053;-82
2022/03/11 13:50:28;;;;;;;19.63;11.13;;;;;;;;;;5086019;28;20049;-83
2022/03/11 13:52:57;;;;;;;17.40;11.02;;;;;;;;;;5087374;28;20049;-82
2022/03/11 13:55:31;;;;;;;20.98;11.38;;;;;;;;;;5090192;28;20599;-83
2022/03/11 13:58:14;;;;;;;21.50;11.65;;;;;;;;;;5090225;28;20044;-83
2022/03/11 14:00:41;;;;;;;24.73;11.65;;;;;;;;;;5089962;28;20114;-83
2022/03/11 14:03:14;;;;;;;18.80;11.52;;;;;;;;;;5089942;28;20486;-83
2022/03/11 14:05:41;;;;;;;19.25;10.98;;;;;;;;;;5089338;28;20056;-83
2022/03/11 14:08:08;;;;;;;21.00;11.65;;;;;;;;;;5088736;28;20519;-83
2022/03/11 14:10:35;;;;;;;23.55;11.82;;;;;;;;;;5088107;28;20053;-82
2022/03/11 14:13:06;;;;;;;20.00;11.25;;;;;;;;;;5089994;28;20523;-82
2022/03/11 14:15:36;;;;;;;21.92;12.00;;;;;;;;;;5119952;27;20056;-83
2022/03/11 14:18:02;;;;;;;21.45;11.68;;;;;;;;;;5098395;28;20499;-83
2022/03/11 14:20:49;;;;;;;19.75;11.10;;;;;;;;;;5088678;28;20129;-83
2022/03/11 14:23:16;;;;;;;18.67;11.13;;;;;;;;;;5085011;28;20060;-83
2022/03/11 14:25:43;;;;;;;21.17;11.30;;;;;;;;;;5086434;28;20037;-83
2022/03/11 14:28:10;;;;;;;29.80;12.05;;;;;;;;;;5086474;28;20052;-82
2022/03/11 14:30:39;;;;;;;23.15;10.93;;;;;;;;;;5086240;28;20056;-82
2022/03/11 14:33:05;;;;;;;19.25;11.15;;;;;;;;;;5090684;28;20110;-81